sensor_id;sensor_type;location;lat;lon;timestamp;pressure;altitude;pressure_sealevel;temperature;humidity
34482;BME280;20720;48.886;9.388;2023-02-03T00:00:46;99626.56;;;8.12;100.00
34482;BME280;20720;48.886;9.388;2023-02-03T00:03:11;99616.91;;;8.30;100.00
34482;BME280;20720;48.886;9.388;2023-02-03T00:05:37;99618.09;;;8.35;100.00
34482;BME280;20720;48.886;9.388;2023-02-03T00:08:04;99614.19;;;8.65;100.00
34482;BME280;20720;48.886;9.388;2023-02-03T00:10:33;99609.66;;;9.01;100.00
34482;BME280;20720;48.886;9.388;2023-02-03T00:12:58;99612.72;;;8.19;100.00
34482;BME280;20720;48.886;9.388;2023-02-03T00:15:23;99618.41;;;8.32;100.00
34482;BME280;20720;48.886;9.388;2023-02-03T00:17:49;99623.50;;;8.34;100.00
34482;BME280;20720;48.886;9.388;2023-02-03T00:20:14;99623.47;;;8.51;100.00
34482;BME280;20720;48.886;9.388;2023-02-03T00:22:39;99624.34;;;8.94;100.00
34482;BME280;20720;48.886;9.388;2023-02-03T00:25:05;99617.97;;;8.19;100.00
34482;BME280;20720;48.886;9.388;2023-02-03T00:27:30;99616.25;;;8.28;100.00
34482;BME280;20720;48.886;9.388;2023-02-03T00:29:56;99610.81;;;8.47;100.00
34482;BME280;20720;48.886;9.388;2023-02-03T00:32:21;99609.78;;;8.22;100.00
34482;BME280;20720;48.886;9.388;2023-02-03T00:34:46;99610.22;;;8.18;100.00
34482;BME280;20720;48.886;9.388;2023-02-03T00:37:12;99612.97;;;8.51;100.00
34482;BME280;20720;48.886;9.388;2023-02-03T00:39:37;99620.72;;;8.61;100.00
34482;BME280;20720;48.886;9.388;2023-02-03T00:42:03;99629.09;;;8.65;100.00
34482;BME280;20720;48.886;9.388;2023-02-03T00:44:29;99640.69;;;8.36;100.00
34482;BME280;20720;48.886;9.388;2023-02-03T00:46:54;99643.97;;;8.38;100.00
34482;BME280;20720;48.886;9.388;2023-02-03T00:49:19;99638.72;;;8.38;100.00
34482;BME280;20720;48.886;9.388;2023-02-03T00:51:45;99643.59;;;8.16;100.00
34482;BME280;20720;48.886;9.388;2023-02-03T00:54:10;99641.91;;;8.50;100.00
34482;BME280;20720;48.886;9.388;2023-02-03T00:56:36;99629.25;;;8.37;100.00
34482;BME280;20720;48.886;9.388;2023-02-03T00:59:01;99615.41;;;8.27;100.00
34482;BME280;20720;48.886;9.388;2023-02-03T01:01:27;99624.22;;;8.70;100.00
34482;BME280;20720;48.886;9.388;2023-02-03T01:03:54;99635.97;;;8.40;100.00
34482;BME280;20720;48.886;9.388;2023-02-03T01:06:21;99640.59;;;8.72;100.00
34482;BME280;20720;48.886;9.388;2023-02-03T01:08:47;99631.84;;;8.63;100.00
34482;BME280;20720;48.886;9.388;2023-02-03T01:11:18;99629.50;;;8.78;100.00
34482;BME280;20720;48.886;9.388;2023-02-03T01:13:44;99606.09;;;8.50;100.00
34482;BME280;20720;48.886;9.388;2023-02-03T01:16:12;99596.81;;;8.38;100.00
34482;BME280;20720;48.886;9.388;2023-02-03T01:18:37;99592.00;;;8.26;100.00
34482;BME280;20720;48.886;9.388;2023-02-03T01:21:11;99592.41;;;8.39;100.00
34482;BME280;20720;48.886;9.388;2023-02-03T01:23:37;99602.72;;;8.40;100.00
34482;BME280;20720;48.886;9.388;2023-02-03T01:26:08;99609.09;;;8.64;100.00
34482;BME280;20720;48.886;9.388;2023-02-03T01:28:34;99611.31;;;8.50;100.00
34482;BME280;20720;48.886;9.388;2023-02-03T01:31:22;99603.56;;;8.41;100.00
34482;BME280;20720;48.886;9.388;2023-02-03T01:33:49;99595.94;;;8.47;100.00
34482;BME280;20720;48.886;9.388;2023-02-03T01:36:16;99590.38;;;8.76;100.00
34482;BME280;20720;48.886;9.388;2023-02-03T01:38:41;99589.97;;;8.37;100.00
34482;BME280;20720;48.886;9.388;2023-02-03T01:41:10;99595.97;;;8.12;100.00
34482;BME280;20720;48.886;9.388;2023-02-03T01:43:38;99585.06;;;7.99;100.00
34482;BME280;20720;48.886;9.388;2023-02-03T01:46:44;99586.72;;;8.00;100.00
34482;BME280;20720;48.886;9.388;2023-02-03T01:49:30;99597.72;;;8.47;100.00
34482;BME280;20720;48.886;9.388;2023-02-03T01:51:57;99595.13;;;8.29;100.00
34482;BME280;20720;48.886;9.388;2023-02-03T01:54:26;99602.03;;;8.56;100.00
34482;BME280;20720;48.886;9.388;2023-02-03T01:57:02;99598.28;;;8.15;100.00
34482;BME280;20720;48.886;9.388;2023-02-03T01:59:30;99595.50;;;8.60;100.00
34482;BME280;20720;48.886;9.388;2023-02-03T02:01:56;99590.72;;;8.12;100.00
34482;BME280;20720;48.886;9.388;2023-02-03T02:04:25;99575.13;;;8.03;100.00
34482;BME280;20720;48.886;9.388;2023-02-03T02:06:55;99576.59;;;8.48;100.00
34482;BME280;20720;48.886;9.388;2023-02-03T02:09:22;99569.63;;;8.57;100.00
34482;BME280;20720;48.886;9.388;2023-02-03T02:11:48;99558.94;;;8.50;100.00
34482;BME280;20720;48.886;9.388;2023-02-03T02:14:13;99559.22;;;7.96;100.00
34482;BME280;20720;48.886;9.388;2023-02-03T02:16:58;99534.19;;;8.19;100.00
34482;BME280;20720;48.886;9.388;2023-02-03T02:25:18;99511.75;;;8.17;100.00
34482;BME280;20720;48.886;9.388;2023-02-03T02:34:01;99505.19;;;8.38;100.00
34482;BME280;20720;48.886;9.388;2023-02-03T02:36:40;99489.66;;;8.11;100.00
34482;BME280;20720;48.886;9.388;2023-02-03T02:39:22;99480.44;;;8.33;100.00
34482;BME280;20720;48.886;9.388;2023-02-03T02:42:06;99475.44;;;7.88;100.00
34482;BME280;20720;48.886;9.388;2023-02-03T02:44:43;99507.16;;;8.36;100.00
34482;BME280;20720;48.886;9.388;2023-02-03T02:47:17;99532.97;;;8.99;100.00
34482;BME280;20720;48.886;9.388;2023-02-03T02:49:57;99535.19;;;8.78;100.00
34482;BME280;20720;48.886;9.388;2023-02-03T02:52:28;99543.31;;;8.67;100.00
34482;BME280;20720;48.886;9.388;2023-02-03T02:54:57;99550.63;;;8.29;100.00
34482;BME280;20720;48.886;9.388;2023-02-03T02:57:25;99533.59;;;8.93;100.00
34482;BME280;20720;48.886;9.388;2023-02-03T02:59:52;99528.78;;;8.80;100.00
34482;BME280;20720;48.886;9.388;2023-02-03T03:02:18;99524.72;;;8.44;100.00
34482;BME280;20720;48.886;9.388;2023-02-03T03:04:45;99521.97;;;8.02;100.00
34482;BME280;20720;48.886;9.388;2023-02-03T03:07:18;99501.75;;;7.87;100.00
34482;BME280;20720;48.886;9.388;2023-02-03T03:09:49;99483.69;;;8.01;100.00
34482;BME280;20720;48.886;9.388;2023-02-03T03:12:23;99488.34;;;7.90;100.00
34482;BME280;20720;48.886;9.388;2023-02-03T03:15:03;99496.41;;;8.47;100.00
34482;BME280;20720;48.886;9.388;2023-02-03T03:17:39;99500.22;;;8.27;100.00
34482;BME280;20720;48.886;9.388;2023-02-03T03:20:10;99500.72;;;8.31;100.00
34482;BME280;20720;48.886;9.388;2023-02-03T03:22:43;99496.69;;;8.36;100.00
34482;BME280;20720;48.886;9.388;2023-02-03T03:25:18;99506.28;;;8.28;100.00
34482;BME280;20720;48.886;9.388;2023-02-03T03:27:48;99506.63;;;8.25;100.00
34482;BME280;20720;48.886;9.388;2023-02-03T03:30:18;99510.84;;;8.60;100.00
34482;BME280;20720;48.886;9.388;2023-02-03T03:32:46;99522.06;;;8.18;100.00
34482;BME280;20720;48.886;9.388;2023-02-03T03:35:12;99530.34;;;8.31;100.00
34482;BME280;20720;48.886;9.388;2023-02-03T03:37:43;99533.97;;;8.30;100.00
34482;BME280;20720;48.886;9.388;2023-02-03T03:40:19;99530.75;;;8.19;100.00
34482;BME280;20720;48.886;9.388;2023-02-03T03:42:50;99530.75;;;8.44;100.00
34482;BME280;20720;48.886;9.388;2023-02-03T03:45:40;99539.78;;;8.50;100.00
34482;BME280;20720;48.886;9.388;2023-02-03T03:48:15;99551.34;;;8.39;100.00
34482;BME280;20720;48.886;9.388;2023-02-03T03:50:46;99568.47;;;8.60;100.00
34482;BME280;20720;48.886;9.388;2023-02-03T03:53:15;99563.34;;;8.76;100.00
34482;BME280;20720;48.886;9.388;2023-02-03T03:55:42;99566.56;;;8.36;100.00
34482;BME280;20720;48.886;9.388;2023-02-03T03:58:13;99581.22;;;8.54;100.00
34482;BME280;20720;48.886;9.388;2023-02-03T04:00:42;99586.06;;;8.41;100.00
34482;BME280;20720;48.886;9.388;2023-02-03T04:03:16;99582.84;;;8.47;100.00
34482;BME280;20720;48.886;9.388;2023-02-03T04:05:44;99583.47;;;8.75;100.00
34482;BME280;20720;48.886;9.388;2023-02-03T04:08:10;99579.94;;;8.33;100.00
34482;BME280;20720;48.886;9.388;2023-02-03T04:10:40;99583.72;;;8.30;100.00
34482;BME280;20720;48.886;9.388;2023-02-03T04:13:07;99576.72;;;8.21;100.00
34482;BME280;20720;48.886;9.388;2023-02-03T04:15:33;99574.03;;;8.57;100.00
34482;BME280;20720;48.886;9.388;2023-02-03T04:17:58;99575.69;;;8.32;100.00
34482;BME280;20720;48.886;9.388;2023-02-03T04:20:26;99572.16;;;8.23;100.00
34482;BME280;20720;48.886;9.388;2023-02-03T04:22:51;99565.91;;;8.16;100.00
34482;BME280;20720;48.886;9.388;2023-02-03T04:25:17;99568.88;;;8.21;100.00
34482;BME280;20720;48.886;9.388;2023-02-03T04:27:42;99566.13;;;8.23;100.00
34482;BME280;20720;48.886;9.388;2023-02-03T04:30:09;99557.72;;;7.76;100.00
34482;BME280;20720;48.886;9.388;2023-02-03T04:32:34;99544.84;;;8.00;100.00
34482;BME280;20720;48.886;9.388;2023-02-03T04:35:00;99537.63;;;7.77;100.00
34482;BME280;20720;48.886;9.388;2023-02-03T04:37:26;99528.41;;;7.90;100.00
34482;BME280;20720;48.886;9.388;2023-02-03T04:39:55;99536.88;;;7.84;100.00
34482;BME280;20720;48.886;9.388;2023-02-03T04:42:21;99528.94;;;7.76;100.00
34482;BME280;20720;48.886;9.388;2023-02-03T04:44:46;99523.00;;;7.66;100.00
34482;BME280;20720;48.886;9.388;2023-02-03T04:47:12;99533.47;;;8.35;100.00
34482;BME280;20720;48.886;9.388;2023-02-03T04:49:37;99542.69;;;8.21;100.00
34482;BME280;20720;48.886;9.388;2023-02-03T04:52:03;99548.00;;;7.86;100.00
34482;BME280;20720;48.886;9.388;2023-02-03T04:54:28;99522.34;;;7.64;100.00
34482;BME280;20720;48.886;9.388;2023-02-03T04:56:54;99507.91;;;7.60;100.00
34482;BME280;20720;48.886;9.388;2023-02-03T04:59:19;99514.00;;;7.69;100.00
34482;BME280;20720;48.886;9.388;2023-02-03T05:01:44;99515.81;;;8.37;100.00
34482;BME280;20720;48.886;9.388;2023-02-03T05:04:10;99521.53;;;7.89;100.00
34482;BME280;20720;48.886;9.388;2023-02-03T05:06:35;99513.22;;;7.33;100.00
34482;BME280;20720;48.886;9.388;2023-02-03T05:09:00;99507.66;;;7.71;100.00
34482;BME280;20720;48.886;9.388;2023-02-03T05:11:26;99519.56;;;7.48;100.00
34482;BME280;20720;48.886;9.388;2023-02-03T05:13:52;99527.00;;;7.96;100.00
34482;BME280;20720;48.886;9.388;2023-02-03T05:16:17;99526.50;;;7.57;100.00
34482;BME280;20720;48.886;9.388;2023-02-03T05:18:43;99530.53;;;7.69;100.00
34482;BME280;20720;48.886;9.388;2023-02-03T05:21:08;99527.81;;;7.96;100.00
34482;BME280;20720;48.886;9.388;2023-02-03T05:23:33;99521.81;;;7.60;100.00
34482;BME280;20720;48.886;9.388;2023-02-03T05:25:59;99508.88;;;7.59;100.00
34482;BME280;20720;48.886;9.388;2023-02-03T05:28:24;99510.28;;;7.71;100.00
34482;BME280;20720;48.886;9.388;2023-02-03T05:30:50;99517.53;;;8.03;100.00
34482;BME280;20720;48.886;9.388;2023-02-03T05:33:15;99534.00;;;7.95;100.00
34482;BME280;20720;48.886;9.388;2023-02-03T05:35:41;99524.09;;;7.81;100.00
34482;BME280;20720;48.886;9.388;2023-02-03T05:38:06;99542.47;;;7.89;100.00
34482;BME280;20720;48.886;9.388;2023-02-03T05:40:32;99540.59;;;7.82;100.00
34482;BME280;20720;48.886;9.388;2023-02-03T05:43:16;99538.69;;;8.09;100.00
34482;BME280;20720;48.886;9.388;2023-02-03T05:45:41;99540.47;;;8.26;100.00
34482;BME280;20720;48.886;9.388;2023-02-03T05:48:07;99546.78;;;7.55;100.00
34482;BME280;20720;48.886;9.388;2023-02-03T05:50:33;99542.28;;;7.47;100.00
34482;BME280;20720;48.886;9.388;2023-02-03T05:52:59;99514.09;;;7.59;100.00
34482;BME280;20720;48.886;9.388;2023-02-03T05:55:26;99502.78;;;7.76;100.00
34482;BME280;20720;48.886;9.388;2023-02-03T05:57:52;99503.59;;;7.51;100.00
34482;BME280;20720;48.886;9.388;2023-02-03T06:00:17;99505.28;;;7.60;100.00
34482;BME280;20720;48.886;9.388;2023-02-03T06:02:43;99520.31;;;7.76;100.00
34482;BME280;20720;48.886;9.388;2023-02-03T06:05:08;99533.22;;;7.95;100.00
34482;BME280;20720;48.886;9.388;2023-02-03T06:07:34;99525.66;;;7.74;100.00
34482;BME280;20720;48.886;9.388;2023-02-03T06:09:59;99514.41;;;7.74;100.00
34482;BME280;20720;48.886;9.388;2023-02-03T06:12:24;99509.50;;;7.53;100.00
34482;BME280;20720;48.886;9.388;2023-02-03T06:14:50;99517.53;;;7.77;100.00
34482;BME280;20720;48.886;9.388;2023-02-03T06:17:15;99515.50;;;8.14;100.00
34482;BME280;20720;48.886;9.388;2023-02-03T06:19:40;99518.06;;;8.06;100.00
34482;BME280;20720;48.886;9.388;2023-02-03T06:22:05;99528.28;;;8.17;100.00
34482;BME280;20720;48.886;9.388;2023-02-03T06:24:31;99535.41;;;8.07;100.00
34482;BME280;20720;48.886;9.388;2023-02-03T06:26:56;99529.41;;;8.32;100.00
34482;BME280;20720;48.886;9.388;2023-02-03T06:29:21;99519.91;;;7.88;100.00
34482;BME280;20720;48.886;9.388;2023-02-03T06:31:46;99518.66;;;7.57;100.00
34482;BME280;20720;48.886;9.388;2023-02-03T06:34:12;99514.78;;;7.61;100.00
34482;BME280;20720;48.886;9.388;2023-02-03T06:36:37;99519.03;;;7.44;100.00
34482;BME280;20720;48.886;9.388;2023-02-03T06:39:02;99513.66;;;7.81;100.00
34482;BME280;20720;48.886;9.388;2023-02-03T06:41:28;99499.03;;;7.53;100.00
34482;BME280;20720;48.886;9.388;2023-02-03T06:43:54;99507.84;;;7.95;100.00
34482;BME280;20720;48.886;9.388;2023-02-03T06:46:20;99494.66;;;7.79;100.00
34482;BME280;20720;48.886;9.388;2023-02-03T06:48:45;99499.59;;;7.64;100.00
34482;BME280;20720;48.886;9.388;2023-02-03T06:51:10;99496.72;;;7.93;100.00
34482;BME280;20720;48.886;9.388;2023-02-03T06:53:36;99487.25;;;7.49;100.00
34482;BME280;20720;48.886;9.388;2023-02-03T06:56:01;99477.13;;;7.36;100.00
34482;BME280;20720;48.886;9.388;2023-02-03T06:58:27;99488.16;;;7.40;100.00
34482;BME280;20720;48.886;9.388;2023-02-03T07:00:56;99484.81;;;7.55;100.00
34482;BME280;20720;48.886;9.388;2023-02-03T07:03:21;99492.53;;;7.39;100.00
34482;BME280;20720;48.886;9.388;2023-02-03T07:05:46;99494.56;;;8.14;100.00
34482;BME280;20720;48.886;9.388;2023-02-03T07:08:12;99485.81;;;7.80;100.00
34482;BME280;20720;48.886;9.388;2023-02-03T07:10:37;99482.03;;;7.57;100.00
34482;BME280;20720;48.886;9.388;2023-02-03T07:13:04;99484.47;;;7.50;100.00
34482;BME280;20720;48.886;9.388;2023-02-03T07:15:30;99488.94;;;7.40;100.00
34482;BME280;20720;48.886;9.388;2023-02-03T07:17:55;99493.81;;;7.53;100.00
34482;BME280;20720;48.886;9.388;2023-02-03T07:20:22;99485.34;;;7.59;100.00
34482;BME280;20720;48.886;9.388;2023-02-03T07:22:52;99486.91;;;7.52;100.00
34482;BME280;20720;48.886;9.388;2023-02-03T07:25:18;99486.69;;;7.63;100.00
34482;BME280;20720;48.886;9.388;2023-02-03T07:27:44;99492.72;;;7.81;100.00
34482;BME280;20720;48.886;9.388;2023-02-03T07:30:09;99492.06;;;7.61;100.00
34482;BME280;20720;48.886;9.388;2023-02-03T07:32:35;99494.84;;;7.60;100.00
34482;BME280;20720;48.886;9.388;2023-02-03T07:35:00;99492.66;;;7.99;100.00
34482;BME280;20720;48.886;9.388;2023-02-03T07:37:25;99489.28;;;7.63;100.00
34482;BME280;20720;48.886;9.388;2023-02-03T07:39:51;99509.25;;;7.64;100.00
34482;BME280;20720;48.886;9.388;2023-02-03T07:42:17;99520.06;;;8.12;100.00
34482;BME280;20720;48.886;9.388;2023-02-03T07:44:42;99524.72;;;7.57;100.00
34482;BME280;20720;48.886;9.388;2023-02-03T07:47:07;99531.81;;;8.08;100.00
34482;BME280;20720;48.886;9.388;2023-02-03T07:49:32;99533.75;;;7.81;100.00
34482;BME280;20720;48.886;9.388;2023-02-03T07:51:58;99534.66;;;7.36;100.00
34482;BME280;20720;48.886;9.388;2023-02-03T07:54:23;99542.03;;;7.76;100.00
34482;BME280;20720;48.886;9.388;2023-02-03T07:56:48;99541.81;;;7.70;100.00
34482;BME280;20720;48.886;9.388;2023-02-03T07:59:15;99548.38;;;7.91;100.00
34482;BME280;20720;48.886;9.388;2023-02-03T08:01:41;99548.91;;;7.77;100.00
34482;BME280;20720;48.886;9.388;2023-02-03T08:04:06;99559.63;;;7.66;100.00
34482;BME280;20720;48.886;9.388;2023-02-03T08:06:32;99554.97;;;7.78;100.00
34482;BME280;20720;48.886;9.388;2023-02-03T08:08:58;99560.84;;;7.97;100.00
34482;BME280;20720;48.886;9.388;2023-02-03T08:11:23;99573.28;;;7.42;100.00
34482;BME280;20720;48.886;9.388;2023-02-03T08:13:49;99561.59;;;8.07;100.00
34482;BME280;20720;48.886;9.388;2023-02-03T08:16:15;99559.66;;;7.74;100.00
34482;BME280;20720;48.886;9.388;2023-02-03T08:18:40;99543.81;;;7.93;100.00
34482;BME280;20720;48.886;9.388;2023-02-03T08:21:05;99558.06;;;7.38;100.00
34482;BME280;20720;48.886;9.388;2023-02-03T08:23:30;99563.88;;;7.67;100.00
34482;BME280;20720;48.886;9.388;2023-02-03T08:25:56;99559.06;;;7.80;100.00
34482;BME280;20720;48.886;9.388;2023-02-03T08:28:21;99555.84;;;7.86;100.00
34482;BME280;20720;48.886;9.388;2023-02-03T08:30:46;99552.91;;;7.89;100.00
34482;BME280;20720;48.886;9.388;2023-02-03T08:33:12;99544.97;;;7.99;100.00
34482;BME280;20720;48.886;9.388;2023-02-03T08:35:37;99547.56;;;7.55;100.00
34482;BME280;20720;48.886;9.388;2023-02-03T08:38:04;99552.72;;;7.83;100.00
34482;BME280;20720;48.886;9.388;2023-02-03T08:40:29;99558.31;;;7.88;100.00
34482;BME280;20720;48.886;9.388;2023-02-03T08:42:54;99571.63;;;7.94;100.00
34482;BME280;20720;48.886;9.388;2023-02-03T08:45:20;99588.84;;;7.79;100.00
34482;BME280;20720;48.886;9.388;2023-02-03T08:47:45;99580.97;;;7.79;100.00
34482;BME280;20720;48.886;9.388;2023-02-03T08:50:11;99573.59;;;7.39;100.00
34482;BME280;20720;48.886;9.388;2023-02-03T08:52:38;99566.84;;;7.37;100.00
34482;BME280;20720;48.886;9.388;2023-02-03T08:55:04;99558.16;;;7.89;100.00
34482;BME280;20720;48.886;9.388;2023-02-03T08:57:34;99571.59;;;8.12;100.00
34482;BME280;20720;48.886;9.388;2023-02-03T08:59:59;99576.81;;;8.29;100.00
34482;BME280;20720;48.886;9.388;2023-02-03T09:02:25;99577.44;;;8.06;100.00
34482;BME280;20720;48.886;9.388;2023-02-03T09:04:50;99554.22;;;8.54;100.00
34482;BME280;20720;48.886;9.388;2023-02-03T09:07:16;99562.34;;;7.82;100.00
34482;BME280;20720;48.886;9.388;2023-02-03T09:09:41;99567.50;;;8.27;100.00
34482;BME280;20720;48.886;9.388;2023-02-03T09:12:07;99557.25;;;8.75;100.00
34482;BME280;20720;48.886;9.388;2023-02-03T09:14:33;99551.63;;;8.11;100.00
34482;BME280;20720;48.886;9.388;2023-02-03T09:17:03;99547.66;;;8.84;100.00
34482;BME280;20720;48.886;9.388;2023-02-03T09:19:29;99542.84;;;8.37;100.00
34482;BME280;20720;48.886;9.388;2023-02-03T09:21:55;99555.09;;;8.37;100.00
34482;BME280;20720;48.886;9.388;2023-02-03T09:24:23;99555.97;;;8.45;100.00
34482;BME280;20720;48.886;9.388;2023-02-03T09:26:49;99564.72;;;8.28;100.00
34482;BME280;20720;48.886;9.388;2023-02-03T09:29:15;99570.03;;;8.01;100.00
34482;BME280;20720;48.886;9.388;2023-02-03T09:31:40;99574.19;;;8.29;100.00
34482;BME280;20720;48.886;9.388;2023-02-03T09:34:06;99560.50;;;8.18;100.00
34482;BME280;20720;48.886;9.388;2023-02-03T09:36:31;99560.44;;;8.53;100.00
34482;BME280;20720;48.886;9.388;2023-02-03T09:38:57;99557.25;;;8.75;100.00
34482;BME280;20720;48.886;9.388;2023-02-03T09:46:47;99551.97;;;8.33;100.00
34482;BME280;20720;48.886;9.388;2023-02-03T09:54:57;99545.34;;;9.38;100.00
34482;BME280;20720;48.886;9.388;2023-02-03T09:57:27;99542.66;;;8.73;100.00
34482;BME280;20720;48.886;9.388;2023-02-03T09:59:56;99543.63;;;8.64;100.00
34482;BME280;20720;48.886;9.388;2023-02-03T10:02:35;99538.31;;;8.81;100.00
34482;BME280;20720;48.886;9.388;2023-02-03T10:05:30;99526.50;;;9.51;100.00
34482;BME280;20720;48.886;9.388;2023-02-03T10:08:06;99526.03;;;10.20;100.00
34482;BME280;20720;48.886;9.388;2023-02-03T10:10:39;99535.38;;;9.42;100.00
34482;BME280;20720;48.886;9.388;2023-02-03T10:18:39;99556.91;;;10.10;100.00
34482;BME280;20720;48.886;9.388;2023-02-03T10:21:12;99559.31;;;9.63;100.00
34482;BME280;20720;48.886;9.388;2023-02-03T10:23:42;99556.66;;;9.47;100.00
34482;BME280;20720;48.886;9.388;2023-02-03T10:26:16;99561.44;;;9.52;100.00
34482;BME280;20720;48.886;9.388;2023-02-03T10:31:19;99558.66;;;10.01;100.00
34482;BME280;20720;48.886;9.388;2023-02-03T10:33:46;99565.72;;;9.85;100.00
34482;BME280;20720;48.886;9.388;2023-02-03T10:36:20;99573.09;;;10.46;100.00
34482;BME280;20720;48.886;9.388;2023-02-03T10:39:04;99557.00;;;9.44;100.00
34482;BME280;20720;48.886;9.388;2023-02-03T10:41:32;99550.84;;;9.11;100.00
34482;BME280;20720;48.886;9.388;2023-02-03T10:44:05;99536.84;;;9.52;100.00
34482;BME280;20720;48.886;9.388;2023-02-03T10:46:33;99537.34;;;10.04;100.00
34482;BME280;20720;48.886;9.388;2023-02-03T10:48:59;99553.69;;;9.34;100.00
34482;BME280;20720;48.886;9.388;2023-02-03T10:51:26;99541.63;;;9.65;100.00
34482;BME280;20720;48.886;9.388;2023-02-03T10:53:56;99562.25;;;9.52;100.00
34482;BME280;20720;48.886;9.388;2023-02-03T10:56:30;99549.50;;;9.65;100.00
34482;BME280;20720;48.886;9.388;2023-02-03T10:58:58;99534.06;;;10.18;100.00
34482;BME280;20720;48.886;9.388;2023-02-03T11:01:27;99531.44;;;9.70;100.00
34482;BME280;20720;48.886;9.388;2023-02-03T11:04:03;99521.94;;;9.85;100.00
34482;BME280;20720;48.886;9.388;2023-02-03T11:06:31;99535.06;;;9.93;100.00
34482;BME280;20720;48.886;9.388;2023-02-03T11:08:57;99530.13;;;9.74;100.00
34482;BME280;20720;48.886;9.388;2023-02-03T11:11:28;99528.66;;;9.80;100.00
34482;BME280;20720;48.886;9.388;2023-02-03T11:16:27;99501.59;;;9.71;100.00
34482;BME280;20720;48.886;9.388;2023-02-03T11:18:58;99503.56;;;9.77;100.00
34482;BME280;20720;48.886;9.388;2023-02-03T11:21:33;99518.06;;;9.07;100.00
34482;BME280;20720;48.886;9.388;2023-02-03T11:24:20;99503.88;;;9.42;100.00
34482;BME280;20720;48.886;9.388;2023-02-03T11:26:49;99492.72;;;9.88;100.00
34482;BME280;20720;48.886;9.388;2023-02-03T11:29:25;99500.94;;;9.85;100.00
34482;BME280;20720;48.886;9.388;2023-02-03T11:31:53;99504.38;;;9.86;100.00
34482;BME280;20720;48.886;9.388;2023-02-03T11:34:30;99508.16;;;9.59;100.00
34482;BME280;20720;48.886;9.388;2023-02-03T11:36:57;99522.41;;;9.81;100.00
34482;BME280;20720;48.886;9.388;2023-02-03T11:39:34;99518.97;;;9.64;100.00
34482;BME280;20720;48.886;9.388;2023-02-03T11:42:00;99513.75;;;9.48;100.00
34482;BME280;20720;48.886;9.388;2023-02-03T11:44:27;99498.00;;;9.80;100.00
34482;BME280;20720;48.886;9.388;2023-02-03T11:47:03;99488.78;;;9.36;100.00
34482;BME280;20720;48.886;9.388;2023-02-03T11:55:02;99477.00;;;9.72;100.00
34482;BME280;20720;48.886;9.388;2023-02-03T12:00:57;99477.97;;;9.71;100.00
34482;BME280;20720;48.886;9.388;2023-02-03T12:06:35;99464.22;;;9.53;100.00
34482;BME280;20720;48.886;9.388;2023-02-03T12:14:30;99476.00;;;9.89;100.00
34482;BME280;20720;48.886;9.388;2023-02-03T12:19:45;99486.66;;;9.64;100.00
34482;BME280;20720;48.886;9.388;2023-02-03T12:25:20;99473.72;;;9.62;100.00
34482;BME280;20720;48.886;9.388;2023-02-03T12:27:58;99479.25;;;9.99;100.00
34482;BME280;20720;48.886;9.388;2023-02-03T12:30:33;99464.69;;;9.81;100.00
34482;BME280;20720;48.886;9.388;2023-02-03T12:33:08;99461.56;;;9.37;100.00
34482;BME280;20720;48.886;9.388;2023-02-03T12:35:41;99449.75;;;9.73;100.00
34482;BME280;20720;48.886;9.388;2023-02-03T12:38:34;99443.53;;;9.66;100.00
34482;BME280;20720;48.886;9.388;2023-02-03T12:41:06;99433.03;;;9.74;100.00
34482;BME280;20720;48.886;9.388;2023-02-03T12:43:48;99442.41;;;9.52;100.00
34482;BME280;20720;48.886;9.388;2023-02-03T12:46:21;99431.91;;;9.52;100.00
34482;BME280;20720;48.886;9.388;2023-02-03T12:52:14;99424.22;;;9.59;100.00
34482;BME280;20720;48.886;9.388;2023-02-03T12:54:24;99414.69;;;9.58;100.00
34482;BME280;20720;48.886;9.388;2023-02-03T12:56:54;99422.56;;;9.58;100.00
34482;BME280;20720;48.886;9.388;2023-02-03T12:59:25;99413.06;;;9.57;100.00
34482;BME280;20720;48.886;9.388;2023-02-03T13:01:57;99413.22;;;9.47;100.00
34482;BME280;20720;48.886;9.388;2023-02-03T13:04:32;99408.72;;;9.96;100.00
34482;BME280;20720;48.886;9.388;2023-02-03T13:07:20;99417.00;;;9.45;100.00
34482;BME280;20720;48.886;9.388;2023-02-03T13:09:55;99415.34;;;9.68;100.00
34482;BME280;20720;48.886;9.388;2023-02-03T13:15:33;99416.94;;;9.77;100.00
34482;BME280;20720;48.886;9.388;2023-02-03T13:18:27;99407.47;;;9.60;100.00
34482;BME280;20720;48.886;9.388;2023-02-03T13:20:55;99398.75;;;9.84;100.00
34482;BME280;20720;48.886;9.388;2023-02-03T13:23:21;99396.28;;;9.82;100.00
34482;BME280;20720;48.886;9.388;2023-02-03T13:32:09;99383.13;;;9.90;100.00
34482;BME280;20720;48.886;9.388;2023-02-03T13:34:47;99384.03;;;9.59;100.00
34482;BME280;20720;48.886;9.388;2023-02-03T13:37:26;99385.78;;;9.82;100.00
34482;BME280;20720;48.886;9.388;2023-02-03T13:42:57;99378.63;;;9.52;100.00
34482;BME280;20720;48.886;9.388;2023-02-03T13:45:31;99363.22;;;9.49;100.00
34482;BME280;20720;48.886;9.388;2023-02-03T13:48:13;99364.09;;;9.88;100.00
34482;BME280;20720;48.886;9.388;2023-02-03T13:50:40;99364.69;;;10.14;100.00
34482;BME280;20720;48.886;9.388;2023-02-03T13:53:20;99365.88;;;9.33;100.00
34482;BME280;20720;48.886;9.388;2023-02-03T13:55:56;99376.94;;;9.83;100.00
34482;BME280;20720;48.886;9.388;2023-02-03T13:58:25;99385.53;;;9.53;100.00
34482;BME280;20720;48.886;9.388;2023-02-03T14:03:39;99384.53;;;9.54;100.00
34482;BME280;20720;48.886;9.388;2023-02-03T14:06:09;99372.06;;;9.64;100.00
34482;BME280;20720;48.886;9.388;2023-02-03T14:08:51;99368.03;;;9.92;100.00
34482;BME280;20720;48.886;9.388;2023-02-03T14:16:41;99389.16;;;9.44;100.00
34482;BME280;20720;48.886;9.388;2023-02-03T14:19:12;99382.00;;;9.77;100.00
34482;BME280;20720;48.886;9.388;2023-02-03T14:24:29;99380.44;;;9.35;100.00
34482;BME280;20720;48.886;9.388;2023-02-03T14:26:57;99387.03;;;10.02;100.00
34482;BME280;20720;48.886;9.388;2023-02-03T14:29:33;99394.25;;;10.00;100.00
34482;BME280;20720;48.886;9.388;2023-02-03T14:32:10;99390.75;;;9.53;100.00